Time;durP1;ratioP1;P1;durP2;ratioP2;P2;SDS_P1;SDS_P2;PMS_P1;PMS_P2;Temp;Humidity;BMP_temperature;BMP_pressure;BME280_temperature;BME280_humidity;BME280_pressure;Samples;Min_cycle;Max_cycle;Signal;HPM_P1;HPM_P2
2022/01/27 00:02:30;;;;;;;9.70;9.40;;;-0.40;99.90;;;;;;6334878;22;20287;-84
2022/01/27 00:07:42;;;;;;;10.00;9.70;;;-0.40;99.90;;;;;;6334475;22;20191;-85
2022/01/27 00:10:20;;;;;;;9.80;9.50;;;-0.40;99.90;;;;;;6333184;22;20200;-83
2022/01/27 00:12:49;;;;;;;9.77;9.47;;;-0.40;99.90;;;;;;6341288;22;20196;-84
2022/01/27 00:15:27;;;;;;;9.80;9.50;;;-0.40;99.90;;;;;;6343439;22;20196;-84
2022/01/27 00:18:17;;;;;;;9.63;9.33;;;-0.40;99.90;;;;;;6340148;22;20217;-84
2022/01/27 00:20:54;;;;;;;9.60;9.30;;;-0.40;99.90;;;;;;6333015;22;20197;-84
2022/01/27 00:23:22;;;;;;;9.50;9.20;;;-0.40;99.90;;;;;;6330864;22;20200;-85
2022/01/27 00:25:51;;;;;;;9.33;9.03;;;-0.40;99.90;;;;;;6330734;22;20192;-84
2022/01/27 00:28:20;;;;;;;9.60;9.30;;;-0.40;99.90;;;;;;6330996;22;20220;-84
2022/01/27 00:30:50;;;;;;;9.47;9.17;;;-0.40;99.90;;;;;;6329985;22;20196;-84
2022/01/27 00:33:22;;;;;;;9.27;8.97;;;-0.40;99.90;;;;;;6330064;22;20223;-84
2022/01/27 00:35:51;;;;;;;9.90;9.60;;;-0.40;99.90;;;;;;6329134;22;20195;-85
2022/01/27 00:38:19;;;;;;;9.47;9.17;;;-0.40;99.90;;;;;;6327718;22;20196;-85
2022/01/27 00:40:47;;;;;;;9.67;9.37;;;-0.40;99.90;;;;;;6329598;22;20207;-85
2022/01/27 00:43:17;;;;;;;9.53;9.23;;;-0.30;99.90;;;;;;6357139;22;20215;-85
2022/01/27 00:45:46;;;;;;;9.40;9.10;;;-0.30;99.90;;;;;;6361778;22;20210;-84
2022/01/27 00:48:17;;;;;;;9.60;9.30;;;-0.30;99.90;;;;;;6361895;22;20207;-85
2022/01/27 00:53:41;;;;;;;9.40;9.10;;;-0.40;99.90;;;;;;6371357;22;20201;-84
2022/01/27 00:56:18;;;;;;;9.53;9.23;;;-0.50;99.90;;;;;;6362572;22;20234;-85
2022/01/27 00:58:55;;;;;;;9.47;9.17;;;-0.50;99.90;;;;;;6359492;22;20200;-85
2022/01/27 01:01:33;;;;;;;9.27;8.97;;;-0.50;99.90;;;;;;6359346;22;20202;-85
2022/01/27 01:04:09;;;;;;;9.63;9.33;;;-0.50;99.90;;;;;;6359521;22;20246;-84
2022/01/27 01:06:47;;;;;;;9.80;9.50;;;-0.40;99.90;;;;;;6359970;22;20195;-84
2022/01/27 01:14:59;;;;;;;9.70;9.40;;;-0.30;99.90;;;;;;6359158;22;20280;-85
2022/01/27 01:31:43;;;;;;;9.87;9.57;;;-0.50;99.90;;;;;;6359519;22;20234;-85
2022/01/27 01:34:21;;;;;;;9.90;9.60;;;-0.40;99.90;;;;;;6357823;22;20195;-84
2022/01/27 01:36:57;;;;;;;9.97;9.67;;;-0.50;99.90;;;;;;6359401;22;20199;-85
2022/01/27 01:39:35;;;;;;;9.70;9.40;;;-0.50;99.90;;;;;;6358418;22;20186;-84
2022/01/27 01:42:12;;;;;;;9.70;9.40;;;-0.50;99.90;;;;;;6358360;22;20962;-85
2022/01/27 01:44:43;;;;;;;9.63;9.33;;;-0.50;99.90;;;;;;6359271;22;20191;-85
2022/01/27 01:47:11;;;;;;;9.80;9.50;;;-0.50;99.90;;;;;;6360254;22;20199;-85
2022/01/27 01:49:49;;;;;;;9.73;9.43;;;-0.50;99.90;;;;;;6358959;22;20199;-84
2022/01/27 01:52:20;;;;;;;9.63;9.33;;;-0.50;99.90;;;;;;6357666;22;20257;-85
2022/01/27 01:54:58;;;;;;;9.63;9.33;;;-0.50;99.90;;;;;;6357242;22;20192;-85
2022/01/27 01:57:39;;;;;;;9.57;9.27;;;-0.40;99.90;;;;;;6357044;22;20199;-85
2022/01/27 02:00:15;;;;;;;9.50;9.20;;;-0.40;99.90;;;;;;6360805;22;20259;-83
2022/01/27 02:02:43;;;;;;;9.50;9.20;;;-0.40;99.90;;;;;;6357370;22;20203;-85
2022/01/27 02:05:13;;;;;;;9.30;9.00;;;-0.40;99.90;;;;;;6357959;22;20330;-85
2022/01/27 02:19:17;;;;;;;9.60;9.30;;;-0.30;99.90;;;;;;6360624;22;20196;-84
2022/01/27 02:22:13;;;;;;;9.70;9.40;;;-0.30;99.90;;;;;;6360100;22;20200;-84
2022/01/27 02:24:42;;;;;;;9.57;9.27;;;-0.40;99.90;;;;;;6359325;22;20197;-85
2022/01/27 02:27:12;;;;;;;9.80;9.50;;;-0.40;99.90;;;;;;6358728;22;20191;-85
2022/01/27 02:29:44;;;;;;;10.13;9.83;;;-0.50;99.90;;;;;;6357615;22;20212;-85
2022/01/27 02:35:06;;;;;;;9.87;9.57;;;-0.50;99.90;;;;;;6363043;22;20203;-85
2022/01/27 02:37:46;;;;;;;9.67;9.37;;;-0.50;99.90;;;;;;6361318;22;20217;-85
2022/01/27 02:40:25;;;;;;;9.70;9.40;;;-0.50;99.90;;;;;;6362753;22;20199;-85
2022/01/27 02:42:53;;;;;;;9.87;9.57;;;-0.60;99.90;;;;;;6361030;22;20203;-85
2022/01/27 02:45:33;;;;;;;9.70;9.40;;;-0.60;99.90;;;;;;6359494;22;20269;-85
2022/01/27 02:48:02;;;;;;;9.60;9.30;;;-0.60;99.90;;;;;;6358585;22;20195;-84
2022/01/27 02:50:32;;;;;;;9.40;9.10;;;-0.60;99.90;;;;;;6361151;22;20188;-84
2022/01/27 02:55:46;;;;;;;9.67;9.37;;;-0.60;99.90;;;;;;6362135;22;20215;-84
2022/01/27 02:58:15;;;;;;;9.60;9.30;;;-0.60;99.90;;;;;;6364354;22;20183;-85
2022/01/27 03:00:45;;;;;;;9.10;8.80;;;-0.60;99.90;;;;;;6367218;22;20204;-85
2022/01/27 03:03:15;;;;;;;9.20;8.90;;;-0.70;99.90;;;;;;6362736;22;20210;-85
2022/01/27 03:05:43;;;;;;;9.17;8.87;;;-0.70;99.90;;;;;;6360050;22;20263;-85
2022/01/27 03:08:22;;;;;;;9.17;8.87;;;-0.70;99.90;;;;;;6360488;22;20206;-85
2022/01/27 03:11:02;;;;;;;9.17;8.87;;;-0.80;99.90;;;;;;6359645;22;20191;-84
2022/01/27 03:13:31;;;;;;;9.70;9.40;;;-0.80;99.90;;;;;;6362059;22;20247;-85
2022/01/27 03:15:59;;;;;;;9.30;9.00;;;-0.80;99.90;;;;;;6365209;22;20195;-85
2022/01/27 03:18:28;;;;;;;9.40;9.10;;;-0.80;99.90;;;;;;6364180;22;20226;-85
2022/01/27 03:20:57;;;;;;;9.43;9.13;;;-0.80;99.90;;;;;;6356007;22;20208;-85
2022/01/27 03:26:14;;;;;;;9.73;9.43;;;-0.80;99.90;;;;;;6357347;22;20190;-85
2022/01/27 03:28:46;;;;;;;9.83;9.53;;;-0.80;99.90;;;;;;6357064;22;20207;-85
2022/01/27 03:31:14;;;;;;;9.33;9.03;;;-0.80;99.90;;;;;;6358555;22;20202;-83
2022/01/27 03:33:43;;;;;;;9.50;9.20;;;-0.80;99.90;;;;;;6358217;22;20200;-83
2022/01/27 03:36:11;;;;;;;9.40;9.10;;;-0.80;99.90;;;;;;6358509;22;20230;-83
2022/01/27 03:38:51;;;;;;;9.40;9.10;;;-0.80;99.90;;;;;;6358384;22;20188;-83
2022/01/27 03:41:22;;;;;;;9.40;9.10;;;-0.80;99.90;;;;;;6359317;22;20192;-83
2022/01/27 03:43:51;;;;;;;9.50;9.20;;;-0.90;99.90;;;;;;6360617;22;20373;-83
2022/01/27 03:46:20;;;;;;;9.80;9.50;;;-0.80;99.90;;;;;;6360069;22;20243;-83
2022/01/27 03:48:48;;;;;;;9.60;9.30;;;-0.80;99.90;;;;;;6357745;22;20205;-83
2022/01/27 03:51:21;;;;;;;9.30;9.00;;;-0.90;99.90;;;;;;6358002;22;20191;-83
2022/01/27 03:53:58;;;;;;;9.40;9.10;;;-0.90;99.90;;;;;;6360129;22;20194;-83
2022/01/27 03:56:29;;;;;;;9.17;8.87;;;-0.90;99.90;;;;;;6359580;22;20222;-84
2022/01/27 03:58:58;;;;;;;9.70;9.40;;;-0.90;99.90;;;;;;6358250;22;20226;-83
2022/01/27 04:01:26;;;;;;;9.53;9.23;;;-0.90;99.90;;;;;;6356968;22;20203;-83
2022/01/27 04:03:57;;;;;;;9.30;9.00;;;-0.90;99.90;;;;;;6355217;22;20200;-83
2022/01/27 04:06:33;;;;;;;9.50;9.20;;;-1.00;99.90;;;;;;6366095;22;20187;-82
2022/01/27 04:09:11;;;;;;;9.43;9.13;;;-1.00;99.90;;;;;;6374655;22;20178;-82
2022/01/27 04:11:42;;;;;;;9.60;9.30;;;-1.00;99.90;;;;;;6370676;22;20250;-83
2022/01/27 04:14:11;;;;;;;9.80;9.50;;;-1.00;99.90;;;;;;6368861;22;20209;-83
2022/01/27 04:16:39;;;;;;;9.90;9.60;;;-1.00;99.90;;;;;;6374616;22;20183;-83
2022/01/27 04:19:09;;;;;;;10.30;10.00;;;-1.00;99.90;;;;;;6374111;22;20187;-83
2022/01/27 04:21:38;;;;;;;10.10;9.80;;;-1.10;99.90;;;;;;6368231;22;20218;-83
2022/01/27 04:24:18;;;;;;;10.40;10.10;;;-1.20;99.90;;;;;;6370215;22;20199;-83
2022/01/27 04:26:56;;;;;;;10.20;9.90;;;-1.20;99.90;;;;;;6360161;22;20203;-83
2022/01/27 04:29:25;;;;;;;10.30;10.00;;;-1.20;99.90;;;;;;6359980;22;20220;-83
2022/01/27 04:31:55;;;;;;;10.17;9.87;;;-1.20;99.90;;;;;;6360720;22;20229;-84
2022/01/27 04:34:23;;;;;;;9.90;9.60;;;-1.20;99.90;;;;;;6361031;22;20203;-84
2022/01/27 04:36:54;;;;;;;9.87;9.57;;;-1.30;99.90;;;;;;6360525;22;20203;-84
2022/01/27 04:39:30;;;;;;;9.80;9.50;;;-1.30;99.90;;;;;;6359717;22;20210;-83
2022/01/27 04:42:07;;;;;;;10.10;9.80;;;-1.30;99.90;;;;;;6358447;22;20206;-83
2022/01/27 04:44:47;;;;;;;10.00;9.70;;;-1.40;99.90;;;;;;6358064;22;20275;-84
2022/01/27 04:47:23;;;;;;;10.00;9.70;;;-1.40;99.90;;;;;;6358036;22;20201;-84
2022/01/27 04:49:57;;;;;;;10.13;9.83;;;-1.40;99.90;;;;;;6357698;22;20208;-84
2022/01/27 04:52:27;;;;;;;10.00;9.70;;;-1.40;99.90;;;;;;6357014;22;20281;-83
2022/01/27 04:55:02;;;;;;;9.83;9.53;;;-1.40;99.90;;;;;;6357830;22;20203;-83
2022/01/27 04:57:32;;;;;;;9.93;9.63;;;-1.50;99.90;;;;;;6357941;22;20213;-83
2022/01/27 05:00:02;;;;;;;10.00;9.70;;;-1.50;99.90;;;;;;6358206;22;20217;-84
2022/01/27 05:02:39;;;;;;;9.70;9.40;;;-1.50;99.90;;;;;;6361116;22;20229;-84
2022/01/27 05:05:09;;;;;;;9.60;9.30;;;-1.50;99.90;;;;;;6362847;22;20198;-84
2022/01/27 05:07:39;;;;;;;9.60;9.30;;;-1.50;99.90;;;;;;6363749;22;20225;-84
2022/01/27 05:10:14;;;;;;;10.10;9.80;;;-1.50;99.90;;;;;;6363460;22;20190;-84
2022/01/27 05:12:50;;;;;;;10.20;9.90;;;-1.50;99.90;;;;;;6361857;22;20194;-83
2022/01/27 05:15:18;;;;;;;9.80;9.50;;;-1.50;99.90;;;;;;6360986;22;20196;-83
2022/01/27 05:17:46;;;;;;;9.90;9.60;;;-1.60;99.90;;;;;;6358898;22;20191;-83
2022/01/27 05:20:14;;;;;;;10.23;9.93;;;-1.60;99.90;;;;;;6357325;22;20201;-83
2022/01/27 05:22:44;;;;;;;9.63;9.33;;;-1.60;99.90;;;;;;6354703;22;20201;-84
2022/01/27 05:25:22;;;;;;;10.23;9.93;;;-1.60;99.90;;;;;;6364072;22;20199;-84
2022/01/27 05:27:51;;;;;;;9.90;9.60;;;-1.50;99.90;;;;;;6365843;22;20213;-83
2022/01/27 05:30:21;;;;;;;10.27;9.97;;;-1.50;99.90;;;;;;6361079;22;20205;-84
2022/01/27 05:32:50;;;;;;;10.50;10.20;;;-1.50;99.90;;;;;;6360105;22;20199;-84
2022/01/27 05:35:21;;;;;;;9.80;9.50;;;-1.50;99.90;;;;;;6365970;22;20190;-84
2022/01/27 05:37:49;;;;;;;9.67;9.37;;;-1.40;99.90;;;;;;6372439;22;20183;-84
2022/01/27 05:40:22;;;;;;;10.07;9.77;;;-1.40;99.90;;;;;;6357411;22;20230;-84
2022/01/27 05:43:11;;;;;;;9.90;9.60;;;-1.40;99.90;;;;;;6324181;22;20266;-81
2022/01/27 05:45:42;;;;;;;10.10;9.80;;;-1.40;99.90;;;;;;6317537;22;20198;-81
2022/01/27 05:48:21;;;;;;;10.17;9.87;;;-1.40;99.90;;;;;;6318064;22;20201;-82
2022/01/27 05:50:50;;;;;;;9.83;9.53;;;-1.50;99.90;;;;;;6317509;22;20273;-82
2022/01/27 05:53:20;;;;;;;9.70;9.40;;;-1.40;99.90;;;;;;6317232;22;20282;-82
2022/01/27 05:55:55;;;;;;;10.00;9.70;;;-1.40;99.90;;;;;;6318022;22;20222;-82
2022/01/27 05:58:29;;;;;;;9.93;9.63;;;-1.40;99.90;;;;;;6319871;22;20200;-82
2022/01/27 06:01:01;;;;;;;10.30;10.00;;;-1.50;99.90;;;;;;6318964;22;20214;-81
2022/01/27 06:03:30;;;;;;;10.10;9.80;;;-1.60;99.90;;;;;;6319034;22;20194;-81
2022/01/27 06:05:59;;;;;;;10.17;9.87;;;-1.60;99.90;;;;;;6318699;22;20207;-81
2022/01/27 06:08:31;;;;;;;10.20;9.90;;;-1.60;99.90;;;;;;6317869;22;20222;-82
2022/01/27 06:11:01;;;;;;;10.03;9.73;;;-1.60;99.90;;;;;;6317820;22;20225;-82
2022/01/27 06:13:35;;;;;;;10.30;10.00;;;-1.60;99.90;;;;;;6318213;22;20198;-82
2022/01/27 06:16:10;;;;;;;10.00;9.70;;;-1.50;99.90;;;;;;6319752;22;20281;-81
2022/01/27 06:18:54;;;;;;;10.00;9.70;;;-1.50;99.90;;;;;;6319933;22;20765;-82
2022/01/27 06:24:18;;;;;;;10.50;10.20;;;-1.50;99.90;;;;;;6321721;22;20197;-81
2022/01/27 06:26:55;;;;;;;10.17;9.87;;;-1.50;99.90;;;;;;6319852;22;20249;-81
2022/01/27 06:29:36;;;;;;;10.10;9.80;;;-1.50;99.90;;;;;;6319809;22;20199;-82
2022/01/27 06:32:05;;;;;;;10.13;9.83;;;-1.50;99.90;;;;;;6320194;22;20196;-82
2022/01/27 06:34:42;;;;;;;10.43;10.13;;;-1.50;99.90;;;;;;6319694;22;20227;-81
2022/01/27 06:37:11;;;;;;;9.97;9.67;;;-1.40;99.90;;;;;;6319141;22;20195;-81
2022/01/27 06:39:47;;;;;;;10.03;9.73;;;-1.40;99.90;;;;;;6319562;22;20193;-81
2022/01/27 06:42:17;;;;;;;9.90;9.60;;;-1.40;99.90;;;;;;6319402;22;20204;-82
2022/01/27 06:44:47;;;;;;;10.00;9.70;;;-1.40;99.90;;;;;;6320228;22;20211;-81
2022/01/27 06:47:18;;;;;;;9.90;9.60;;;-1.40;99.90;;;;;;6339910;22;20227;-81
2022/01/27 06:49:56;;;;;;;9.80;9.50;;;-1.40;99.90;;;;;;6343737;22;20195;-81
2022/01/27 06:52:34;;;;;;;9.97;9.67;;;-1.40;99.90;;;;;;6342937;22;20246;-80
2022/01/27 06:55:13;;;;;;;9.90;9.60;;;-1.40;99.90;;;;;;6342575;22;20182;-82
2022/01/27 06:57:50;;;;;;;9.80;9.50;;;-1.40;99.90;;;;;;6343366;22;20205;-82
2022/01/27 07:00:31;;;;;;;10.30;10.00;;;-1.30;99.90;;;;;;6343517;22;20188;-82
2022/01/27 07:02:59;;;;;;;9.87;9.57;;;-1.30;99.90;;;;;;6338210;22;20194;-83
2022/01/27 07:05:30;;;;;;;10.07;9.77;;;-1.30;99.90;;;;;;6340581;22;20205;-81
2022/01/27 07:12:31;;;;;;;9.50;9.20;;;-1.20;99.90;;;;;;6174518;23;20337;-81
2022/01/27 07:16:10;;;;;;;10.17;9.87;;;-1.20;99.90;;;;;;6255021;22;20223;-81
2022/01/27 07:19:57;;;;;;;10.10;9.80;;;-1.10;99.90;;;;;;6228030;23;20200;-82
2022/01/27 07:22:38;;;;;;;10.20;9.90;;;-1.10;99.90;;;;;;6163788;22;20203;-83
2022/01/27 07:26:02;;;;;;;10.33;10.03;;;-1.10;99.90;;;;;;6270604;22;20199;-81
2022/01/27 07:28:33;;;;;;;10.30;10.00;;;-1.10;99.90;;;;;;6320036;22;20200;-80
2022/01/27 07:31:46;;;;;;;10.03;9.73;;;-1.10;99.90;;;;;;6319328;22;20203;-81
2022/01/27 07:37:52;;;;;;;9.93;9.63;;;-1.20;99.90;;;;;;6286656;22;20200;-82
2022/01/27 07:40:21;;;;;;;10.03;9.73;;;-1.20;99.90;;;;;;6319157;22;20197;-80
2022/01/27 07:46:48;;;;;;;10.27;9.97;;;-1.10;99.90;;;;;;6317231;22;20210;-82
2022/01/27 07:50:30;;;;;;;9.93;9.63;;;-1.10;99.90;;;;;;6304746;22;20205;-81
2022/01/27 07:53:19;;;;;;;10.50;10.20;;;-1.10;99.90;;;;;;6320188;22;20196;-82
2022/01/27 07:55:49;;;;;;;10.00;9.70;;;-1.10;99.90;;;;;;6319136;22;20251;-83
2022/01/27 07:59:08;;;;;;;10.50;10.20;;;-1.10;99.90;;;;;;6320093;22;20282;-82
2022/01/27 08:01:36;;;;;;;10.40;10.10;;;-1.10;99.90;;;;;;6318744;22;20217;-81
2022/01/27 08:20:23;;;;;;;10.43;10.13;;;-1.30;99.90;;;;;;6164353;23;20233;-82
2022/01/27 08:30:48;;;;;;;10.30;10.00;;;-1.20;99.90;;;;;;6113349;23;20202;-81
2022/01/27 08:33:29;;;;;;;10.37;10.07;;;-0.70;99.90;;;;;;6165047;23;20266;-82
2022/01/27 08:36:00;;;;;;;10.47;10.17;;;-0.80;99.90;;;;;;6186157;23;20207;-80
2022/01/27 08:39:03;;;;;;;10.40;10.10;;;-0.90;99.90;;;;;;6227212;23;20249;-81
2022/01/27 08:56:37;;;;;;;10.43;10.13;;;-1.20;99.90;;;;;;6013995;23;20209;-82
2022/01/27 08:59:08;;;;;;;10.40;10.10;;;-1.20;99.90;;;;;;6025070;23;20278;-81
2022/01/27 09:20:45;;;;;;;10.17;9.87;;;-1.30;99.90;;;;;;5984652;23;20288;-82
2022/01/27 09:34:55;;;;;;;10.27;9.97;;;-1.00;99.90;;;;;;6057316;23;20222;-83
2022/01/27 09:41:19;;;;;;;9.90;9.60;;;-1.10;99.90;;;;;;6095275;23;20222;-85
2022/01/27 09:44:12;;;;;;;10.30;10.00;;;-1.10;99.90;;;;;;6103715;23;20210;-84
2022/01/27 10:34:18;;;;;;;10.17;9.87;;;-0.80;99.90;;;;;;6047236;23;20220;-83
2022/01/27 11:18:44;;;;;;;;;;;;;;;;;;;;;
2022/01/27 11:40:12;;;;;;;10.13;9.83;;;-0.50;99.90;;;;;;6071894;23;20191;-81
2022/01/27 11:43:10;;;;;;;10.13;9.83;;;-0.50;99.90;;;;;;6282092;22;20211;-79
2022/01/27 11:45:42;;;;;;;9.73;9.43;;;-0.40;99.90;;;;;;6320044;22;20227;-79
2022/01/27 11:48:25;;;;;;;10.30;10.00;;;-0.40;99.90;;;;;;6326535;22;20262;-78
2022/01/27 11:51:10;;;;;;;10.23;9.93;;;-0.40;99.90;;;;;;6332187;22;20188;-78
2022/01/27 11:53:48;;;;;;;10.33;10.03;;;-0.40;99.90;;;;;;6317371;22;20210;-79
2022/01/27 11:56:37;;;;;;;10.13;9.83;;;-0.30;99.90;;;;;;6317069;22;20188;-79
2022/01/27 11:59:08;;;;;;;10.50;10.20;;;-0.30;99.90;;;;;;6312589;22;20188;-79
2022/01/27 12:01:37;;;;;;;10.23;9.93;;;-0.30;99.90;;;;;;6315801;22;20204;-78
2022/01/27 12:04:15;;;;;;;10.17;9.87;;;-0.30;99.90;;;;;;6314754;22;20224;-78
2022/01/27 12:07:07;;;;;;;9.97;9.67;;;-0.30;99.90;;;;;;6314252;22;20197;-78
2022/01/27 12:09:37;;;;;;;9.87;9.57;;;-0.20;99.90;;;;;;6316483;22;20188;-78
2022/01/27 12:12:24;;;;;;;10.23;9.93;;;-0.20;99.90;;;;;;6316163;22;20330;-78
2022/01/27 12:15:10;;;;;;;10.30;10.00;;;-0.10;99.90;;;;;;6318390;22;20191;-78
2022/01/27 12:17:40;;;;;;;10.27;9.97;;;-0.10;99.90;;;;;;6316377;22;20189;-79
2022/01/27 12:20:13;;;;;;;10.07;9.77;;;0.00;99.90;;;;;;6316209;22;20197;-79
2022/01/27 12:23:14;;;;;;;10.07;9.77;;;0.10;99.90;;;;;;6314538;22;20216;-79
2022/01/27 12:25:48;;;;;;;9.97;9.67;;;0.10;99.90;;;;;;6315294;22;20188;-79
2022/01/27 12:28:17;;;;;;;10.17;9.87;;;0.10;99.90;;;;;;6317479;22;20204;-80
2022/01/27 12:31:01;;;;;;;10.00;9.70;;;0.10;99.90;;;;;;6316635;22;20204;-79
2022/01/27 12:33:29;;;;;;;9.97;9.67;;;0.10;99.90;;;;;;6317002;22;20292;-79
2022/01/27 12:35:57;;;;;;;10.00;9.70;;;0.10;99.90;;;;;;6317764;22;20204;-79
2022/01/27 12:38:25;;;;;;;10.03;9.73;;;0.20;99.90;;;;;;6320505;22;20201;-79
2022/01/27 12:40:58;;;;;;;9.90;9.60;;;0.20;99.90;;;;;;6319668;22;20238;-79
2022/01/27 12:43:27;;;;;;;9.80;9.50;;;0.20;99.90;;;;;;6319087;22;20205;-79
2022/01/27 12:46:00;;;;;;;9.93;9.63;;;0.30;99.90;;;;;;6318601;22;20744;-79
2022/01/27 12:48:28;;;;;;;9.87;9.57;;;0.30;99.90;;;;;;6316521;22;20224;-79
2022/01/27 12:51:01;;;;;;;10.00;9.70;;;0.30;99.90;;;;;;6317413;22;20204;-79
2022/01/27 12:53:30;;;;;;;10.00;9.70;;;0.30;99.90;;;;;;6323988;22;20212;-79
2022/01/27 12:56:00;;;;;;;9.67;9.37;;;0.40;99.90;;;;;;6325550;22;20204;-79
2022/01/27 12:58:33;;;;;;;9.93;9.63;;;0.40;99.90;;;;;;6326675;22;20256;-78
2022/01/27 13:01:02;;;;;;;10.00;9.70;;;0.40;99.90;;;;;;6318303;22;20220;-78
2022/01/27 13:03:30;;;;;;;10.13;9.83;;;0.50;99.90;;;;;;6315425;22;20239;-78
2022/01/27 13:06:03;;;;;;;10.03;9.73;;;0.50;99.90;;;;;;6317589;22;20224;-79
2022/01/27 13:08:32;;;;;;;10.00;9.70;;;0.60;99.90;;;;;;6320839;22;20201;-79
2022/01/27 13:11:08;;;;;;;10.13;9.83;;;0.60;99.90;;;;;;6321433;22;20263;-78
2022/01/27 13:13:40;;;;;;;10.30;10.00;;;0.60;99.90;;;;;;6312573;22;20230;-79
2022/01/27 13:16:15;;;;;;;10.27;9.97;;;0.60;99.90;;;;;;6313949;22;20234;-77
2022/01/27 13:19:01;;;;;;;9.90;9.60;;;0.60;99.90;;;;;;6313565;22;20203;-77
2022/01/27 13:21:32;;;;;;;9.90;9.60;;;0.60;99.90;;;;;;6312959;22;20188;-78
2022/01/27 13:24:04;;;;;;;10.30;10.00;;;0.60;99.90;;;;;;6312109;22;20223;-78
2022/01/27 13:26:33;;;;;;;10.20;9.90;;;0.50;99.90;;;;;;6313811;22;20238;-79
2022/01/27 13:29:02;;;;;;;10.20;9.90;;;0.50;99.90;;;;;;6314276;22;20212;-78
2022/01/27 13:31:30;;;;;;;9.90;9.60;;;0.60;99.90;;;;;;6314438;22;20196;-78
2022/01/27 13:34:04;;;;;;;9.97;9.67;;;0.60;99.90;;;;;;6313515;22;20204;-78
2022/01/27 13:36:35;;;;;;;9.63;9.33;;;0.70;99.90;;;;;;6314254;22;20193;-78
2022/01/27 13:39:13;;;;;;;9.63;9.33;;;0.70;99.90;;;;;;6314789;22;20284;-78
2022/01/27 13:41:41;;;;;;;9.80;9.50;;;0.70;99.90;;;;;;6313399;22;20254;-77
2022/01/27 13:44:12;;;;;;;9.33;9.03;;;0.80;99.90;;;;;;6313526;22;20212;-78
2022/01/27 13:46:44;;;;;;;9.30;9.00;;;0.80;99.90;;;;;;6314953;22;20193;-78
2022/01/27 13:49:18;;;;;;;9.20;8.90;;;0.80;99.90;;;;;;6315682;22;20243;-77
2022/01/27 13:51:53;;;;;;;9.57;9.27;;;0.80;99.90;;;;;;6314524;22;20251;-79
2022/01/27 13:54:24;;;;;;;9.40;9.10;;;0.80;99.90;;;;;;6314813;22;20192;-78
2022/01/27 13:56:53;;;;;;;9.17;8.90;;;0.80;99.90;;;;;;6312467;22;20208;-78
2022/01/27 13:59:28;;;;;;;9.23;8.93;;;0.80;99.90;;;;;;6314165;22;20197;-78
2022/01/27 14:02:17;;;;;;;8.87;8.67;;;0.80;99.90;;;;;;6313289;22;20193;-78
2022/01/27 14:04:46;;;;;;;8.87;8.67;;;0.80;99.90;;;;;;6312901;22;20204;-78
2022/01/27 14:07:15;;;;;;;8.60;8.40;;;0.80;99.90;;;;;;6313597;22;20243;-78
2022/01/27 14:09:44;;;;;;;9.30;9.00;;;0.80;99.90;;;;;;6313550;22;20200;-79
2022/01/27 14:12:19;;;;;;;9.00;8.70;;;0.80;99.90;;;;;;6313486;22;20219;-78
2022/01/27 14:14:51;;;;;;;8.90;8.70;;;0.80;99.90;;;;;;6313842;22;20193;-79
2022/01/27 14:17:25;;;;;;;9.20;8.90;;;0.80;99.90;;;;;;6315734;22;20193;-80
2022/01/27 14:19:54;;;;;;;9.13;8.83;;;0.80;99.90;;;;;;6316762;22;20240;-79
2022/01/27 14:22:27;;;;;;;9.10;8.80;;;0.80;99.90;;;;;;6314557;22;20216;-79
2022/01/27 14:25:02;;;;;;;8.93;8.70;;;0.80;99.90;;;;;;6315903;22;20193;-79
2022/01/27 14:27:39;;;;;;;8.80;8.60;;;0.80;99.90;;;;;;6314863;22;20199;-80
2022/01/27 14:30:13;;;;;;;8.77;8.57;;;0.80;99.90;;;;;;6314995;22;20192;-79
2022/01/27 14:32:43;;;;;;;8.60;8.40;;;0.80;99.90;;;;;;6314437;22;20195;-79
2022/01/27 14:35:14;;;;;;;9.03;8.73;;;0.80;99.90;;;;;;6322168;22;20199;-79
2022/01/27 14:37:43;;;;;;;8.70;8.50;;;0.80;99.90;;;;;;6316930;22;20196;-79
2022/01/27 14:40:16;;;;;;;8.50;8.30;;;0.80;99.90;;;;;;6317468;22;20227;-78
2022/01/27 14:42:45;;;;;;;8.63;8.43;;;0.90;99.90;;;;;;6312855;22;20209;-79
2022/01/27 14:45:18;;;;;;;8.80;8.60;;;0.90;99.90;;;;;;6319623;22;20336;-80
2022/01/27 14:47:46;;;;;;;8.47;8.27;;;0.90;99.90;;;;;;6319545;22;20619;-80
2022/01/27 14:50:16;;;;;;;7.93;7.73;;;1.00;99.90;;;;;;6318007;22;20216;-78
2022/01/27 14:52:45;;;;;;;8.37;8.17;;;1.00;99.90;;;;;;6314527;22;20200;-79
2022/01/27 14:55:16;;;;;;;8.40;8.20;;;1.00;99.90;;;;;;6316675;22;20220;-78
2022/01/27 14:57:45;;;;;;;8.43;8.23;;;1.00;99.90;;;;;;6315071;22;20192;-78
2022/01/27 15:00:17;;;;;;;8.40;8.20;;;1.10;99.90;;;;;;6316058;22;20200;-79
2022/01/27 15:02:45;;;;;;;8.03;7.83;;;1.10;99.90;;;;;;6315759;22;20711;-78
2022/01/27 15:05:14;;;;;;;8.07;7.87;;;1.10;99.90;;;;;;6317266;22;20211;-79
2022/01/27 15:07:45;;;;;;;8.27;8.07;;;1.10;99.90;;;;;;6313428;22;20208;-78
2022/01/27 15:10:15;;;;;;;8.10;7.90;;;1.10;99.90;;;;;;6321091;22;20254;-80
2022/01/27 15:12:44;;;;;;;8.13;7.93;;;1.20;99.90;;;;;;6317308;22;20197;-80
2022/01/27 15:20:45;;;;;;;8.17;7.97;;;1.20;99.90;;;;;;6318569;22;20224;-79
2022/01/27 15:23:18;;;;;;;8.30;8.10;;;1.20;99.90;;;;;;6318607;22;20219;-79
2022/01/27 15:25:47;;;;;;;8.20;8.00;;;1.20;99.90;;;;;;6318071;22;20223;-80
2022/01/27 15:28:15;;;;;;;8.13;7.93;;;1.20;99.90;;;;;;6316228;22;20208;-78
2022/01/27 15:30:45;;;;;;;8.23;8.03;;;1.30;99.90;;;;;;6315715;22;20201;-78
2022/01/27 15:33:13;;;;;;;8.00;7.80;;;1.30;99.90;;;;;;6316232;22;20207;-80
2022/01/27 15:35:44;;;;;;;8.00;7.80;;;1.30;99.90;;;;;;6316044;22;20209;-78
2022/01/27 15:38:13;;;;;;;8.10;7.90;;;1.30;99.90;;;;;;6315920;22;20188;-79
2022/01/27 15:40:42;;;;;;;7.87;7.67;;;1.40;99.90;;;;;;6315016;22;20277;-79
2022/01/27 15:43:11;;;;;;;7.90;7.70;;;1.40;99.90;;;;;;6315717;22;20677;-80
2022/01/27 15:45:40;;;;;;;8.00;7.80;;;1.40;99.90;;;;;;6322966;22;20203;-79
2022/01/27 15:48:10;;;;;;;8.23;8.03;;;1.50;99.90;;;;;;6332330;22;20205;-78
2022/01/27 15:50:38;;;;;;;8.37;8.17;;;1.50;99.90;;;;;;6342409;22;20193;-78
2022/01/27 15:53:09;;;;;;;8.20;8.00;;;1.50;99.90;;;;;;6341202;22;20256;-78
2022/01/27 15:55:40;;;;;;;7.90;7.70;;;1.50;99.90;;;;;;6340808;22;20477;-77
2022/01/27 15:58:08;;;;;;;7.90;7.70;;;1.50;99.90;;;;;;6341421;22;20215;-77
2022/01/27 16:00:36;;;;;;;7.80;7.60;;;1.60;99.90;;;;;;6339478;22;20244;-80
2022/01/27 16:03:05;;;;;;;7.80;7.60;;;1.60;99.90;;;;;;6338832;22;20239;-79
2022/01/27 16:05:34;;;;;;;7.60;7.40;;;1.60;99.90;;;;;;6337558;22;20188;-78
2022/01/27 16:08:02;;;;;;;8.20;8.00;;;1.60;99.90;;;;;;6331377;22;20209;-79
2022/01/27 16:10:34;;;;;;;8.10;7.90;;;1.60;99.90;;;;;;6319923;22;20197;-80
2022/01/27 16:13:02;;;;;;;8.10;7.90;;;1.60;99.90;;;;;;6321773;22;20197;-80
2022/01/27 16:15:31;;;;;;;7.87;7.67;;;1.60;99.90;;;;;;6322883;22;20215;-81
2022/01/27 16:17:59;;;;;;;7.70;7.50;;;1.60;99.90;;;;;;6326250;22;20193;-81
2022/01/27 16:20:27;;;;;;;7.90;7.70;;;1.60;99.90;;;;;;6317275;22;20262;-79
2022/01/27 16:22:58;;;;;;;8.00;7.80;;;1.60;99.90;;;;;;6314949;22;20215;-78
2022/01/27 16:25:26;;;;;;;8.00;7.80;;;1.60;99.90;;;;;;6315132;22;20260;-79
2022/01/27 16:27:54;;;;;;;7.90;7.70;;;1.70;99.90;;;;;;6316487;22;20200;-79
2022/01/27 16:30:22;;;;;;;7.70;7.50;;;1.70;99.90;;;;;;6315992;22;20188;-79
2022/01/27 16:32:50;;;;;;;7.80;7.60;;;1.70;99.90;;;;;;6315518;22;20204;-79
2022/01/27 16:35:18;;;;;;;8.00;7.80;;;1.70;99.90;;;;;;6313964;22;20376;-76
2022/01/27 16:37:50;;;;;;;7.87;7.67;;;1.80;99.90;;;;;;6314392;22;20208;-73
2022/01/27 16:40:21;;;;;;;8.00;7.80;;;1.80;99.90;;;;;;6314373;22;20191;-78
2022/01/27 16:42:50;;;;;;;7.80;7.60;;;1.80;99.90;;;;;;6316315;22;20213;-79
2022/01/27 16:45:18;;;;;;;8.20;8.00;;;1.90;99.90;;;;;;6316838;22;20197;-80
2022/01/27 16:47:45;;;;;;;8.20;8.00;;;1.90;99.90;;;;;;6318890;22;20251;-80
2022/01/27 16:50:15;;;;;;;7.90;7.70;;;1.90;99.90;;;;;;6318875;22;20205;-80
2022/01/27 16:52:43;;;;;;;8.00;7.80;;;1.90;99.90;;;;;;6316966;22;20256;-79
2022/01/27 16:55:14;;;;;;;8.00;7.80;;;1.90;99.90;;;;;;6317657;22;20197;-80
2022/01/27 16:57:43;;;;;;;7.80;7.60;;;1.90;99.90;;;;;;6317556;22;20193;-79
2022/01/27 17:00:12;;;;;;;7.70;7.50;;;1.90;99.90;;;;;;6318000;22;20189;-80
2022/01/27 17:02:40;;;;;;;8.33;8.13;;;2.00;99.90;;;;;;6318527;22;20228;-80
2022/01/27 17:05:08;;;;;;;7.50;7.30;;;1.90;99.90;;;;;;6315183;22;20196;-80
2022/01/27 17:07:36;;;;;;;7.60;7.40;;;1.90;99.90;;;;;;6316588;22;20205;-79
2022/01/27 17:10:05;;;;;;;7.63;7.43;;;2.00;99.90;;;;;;6316373;22;20196;-80
2022/01/27 17:12:33;;;;;;;7.73;7.53;;;2.00;99.90;;;;;;6316554;22;20231;-79
2022/01/27 17:15:02;;;;;;;7.73;7.53;;;2.00;99.90;;;;;;6312664;22;20504;-80
2022/01/27 17:17:31;;;;;;;7.87;7.67;;;2.00;99.90;;;;;;6315026;22;20197;-78
2022/01/27 17:20:02;;;;;;;7.70;7.50;;;2.00;99.90;;;;;;6317288;22;20204;-80
2022/01/27 17:22:30;;;;;;;8.03;7.83;;;2.00;99.90;;;;;;6323744;22;20204;-79
2022/01/27 17:24:59;;;;;;;8.17;7.97;;;2.00;99.90;;;;;;6330547;22;20220;-79
2022/01/27 17:27:29;;;;;;;8.03;7.83;;;2.00;99.90;;;;;;6325945;22;20216;-79
2022/01/27 17:29:56;;;;;;;7.83;7.63;;;2.00;99.90;;;;;;6315523;22;20192;-79